Aviation Digital Data Service (ADDS)

Output produced by METARs form (1721 UTC 09 December 2016)
found at http://aviationweather.gov/adds/metars/
 
KERI 091130Z 0912/1012 28014G20KT 6SM -SHSN SCT015 OVC035 
     TEMPO 0912/0916 3SM -SHSN OVC015 
     FM091600 27014G20KT 4SM -SHSN BKN018 OVC035 
     FM100100 26011KT 4SM -SHSN OVC020